createdAt,value
2023-05-01T00:00:56.322Z,8.10
2023-05-01T00:03:58.779Z,9.80
2023-05-01T00:07:00.769Z,10.00
2023-05-01T00:13:04.539Z,11.00
2023-05-01T00:16:10.123Z,11.90
2023-05-01T00:19:12.652Z,11.80
2023-05-01T00:22:14.430Z,12.50
2023-05-01T00:25:16.187Z,13.00
2023-05-01T00:31:24.853Z,9.80
2023-05-01T00:34:30.518Z,10.40
2023-05-01T00:37:32.258Z,10.80
2023-05-01T00:40:42.032Z,13.30
2023-05-01T00:43:43.678Z,16.30
2023-05-01T00:46:45.290Z,19.70
2023-05-01T00:52:48.663Z,21.50
2023-05-01T00:58:51.848Z,22.50
2023-05-01T01:04:58.556Z,25.30
2023-05-01T01:08:15.883Z,28.30
2023-05-01T01:11:42.015Z,29.10
2023-05-01T01:15:06.710Z,30.00
2023-05-01T01:18:10.188Z,35.30
2023-05-01T01:21:13.130Z,36.10
2023-05-01T01:24:33.742Z,36.10
2023-05-01T01:28:13.942Z,37.40
2023-05-01T01:31:22.208Z,35.00
2023-05-01T01:34:36.492Z,34.60
2023-05-01T01:37:47.328Z,35.10
2023-05-01T01:41:11.470Z,32.50
2023-05-01T01:44:19.522Z,28.70
2023-05-01T01:47:22.502Z,28.00
2023-05-01T01:50:26.481Z,24.90
2023-05-01T01:53:30.105Z,27.20
2023-05-01T01:56:33.328Z,21.20
2023-05-01T01:59:35.371Z,20.70
2023-05-01T02:02:38.777Z,20.00
2023-05-01T02:05:42.399Z,23.30
2023-05-01T02:08:44.617Z,21.90
2023-05-01T02:11:46.831Z,20.40
2023-05-01T02:14:48.807Z,18.20
2023-05-01T02:17:51.333Z,15.80
2023-05-01T02:20:53.556Z,18.20
2023-05-01T02:23:55.556Z,18.00
2023-05-01T02:27:03.137Z,17.40
2023-05-01T02:30:05.382Z,17.60
2023-05-01T02:33:07.985Z,18.00
2023-05-01T02:36:09.723Z,18.00
2023-05-01T02:42:13.358Z,15.90
2023-05-01T02:45:20.635Z,15.90
2023-05-01T02:48:25.770Z,18.00
2023-05-01T02:51:28.212Z,20.80
2023-05-01T02:54:31.202Z,19.80
2023-05-01T02:57:33.433Z,19.50
2023-05-01T03:00:35.047Z,20.30
2023-05-01T03:03:37.010Z,18.60
2023-05-01T03:06:38.899Z,19.40
2023-05-01T03:09:40.485Z,16.20
2023-05-01T03:12:42.144Z,16.40
2023-05-01T03:15:44.485Z,16.60
2023-05-01T03:18:46.112Z,15.80
2023-05-01T03:21:47.714Z,13.80
2023-05-01T03:24:49.321Z,15.90
2023-05-01T03:27:52.144Z,16.60
2023-05-01T03:30:55.356Z,20.90
2023-05-01T03:33:56.983Z,21.10
2023-05-01T03:36:58.787Z,18.90
2023-05-01T03:43:01.981Z,18.40
2023-05-01T03:46:03.595Z,19.00
2023-05-01T03:49:05.240Z,17.70
2023-05-01T03:52:06.881Z,17.00
2023-05-01T03:55:09.018Z,18.30
2023-05-01T03:58:10.831Z,16.20
2023-05-01T04:04:14.199Z,14.30
2023-05-01T04:07:15.982Z,13.10
2023-05-01T04:13:19.390Z,12.50
2023-05-01T04:19:22.646Z,12.20
2023-05-01T04:22:24.276Z,11.60
2023-05-01T04:25:26.182Z,12.40
2023-05-01T04:28:27.866Z,14.40
2023-05-01T04:31:29.552Z,13.60
2023-05-01T04:34:31.190Z,14.50
2023-05-01T04:37:32.861Z,13.30
2023-05-01T04:40:34.652Z,14.10
2023-05-01T04:43:36.265Z,13.80
2023-05-01T04:46:37.961Z,13.50
2023-05-01T04:49:39.691Z,13.40
2023-05-01T04:55:42.914Z,12.80
2023-05-01T04:58:44.897Z,12.00
2023-05-01T05:01:46.595Z,12.00
2023-05-01T05:04:48.807Z,12.50
2023-05-01T05:07:50.572Z,11.40
2023-05-01T05:10:57.549Z,11.90
2023-05-01T05:13:59.241Z,12.00
2023-05-01T05:17:00.995Z,12.00
2023-05-01T05:20:02.647Z,11.00
2023-05-01T05:23:04.275Z,11.30
2023-05-01T05:26:05.954Z,11.80
2023-05-01T05:29:07.730Z,11.30
2023-05-01T05:32:09.627Z,10.80
2023-05-01T05:35:11.351Z,10.50
2023-05-01T05:38:13.089Z,9.80
2023-05-01T05:41:14.776Z,10.40
2023-05-01T05:44:16.659Z,11.10
2023-05-01T05:47:18.360Z,11.50
2023-05-01T05:50:20.179Z,11.20
2023-05-01T05:53:24.973Z,10.90
2023-05-01T05:56:27.463Z,11.10
2023-05-01T05:59:29.137Z,11.40
2023-05-01T06:02:31.452Z,9.80
2023-05-01T06:05:33.452Z,11.30
2023-05-01T06:08:35.263Z,10.80
2023-05-01T06:11:36.851Z,10.10
2023-05-01T06:14:38.539Z,10.10
2023-05-01T06:17:40.152Z,10.50
2023-05-01T06:20:41.828Z,9.60
2023-05-01T06:23:43.548Z,9.10
2023-05-01T06:26:45.175Z,9.60
2023-05-01T06:29:46.788Z,9.10
2023-05-01T06:32:48.792Z,9.00
2023-05-01T06:35:50.878Z,9.10
2023-05-01T06:38:52.563Z,8.80
2023-05-01T06:41:54.263Z,8.40
2023-05-01T06:44:55.896Z,8.00
2023-05-01T06:47:57.573Z,8.30
2023-05-01T06:50:59.451Z,7.50
2023-05-01T06:54:01.035Z,7.70
2023-05-01T06:57:02.685Z,7.00
2023-05-01T07:00:05.020Z,7.10
2023-05-01T07:03:06.893Z,7.10
2023-05-01T07:06:08.609Z,7.10
2023-05-01T07:09:10.478Z,7.10
2023-05-01T07:12:12.117Z,6.70
2023-05-01T07:15:13.720Z,7.10
2023-05-01T07:18:15.357Z,7.00
2023-05-01T07:21:16.957Z,6.80
2023-05-01T07:24:18.509Z,6.00
2023-05-01T07:27:20.619Z,5.70
2023-05-01T07:30:22.265Z,5.40
2023-05-01T07:33:24.219Z,4.80
2023-05-01T07:36:25.949Z,5.50
2023-05-01T07:39:27.588Z,5.10
2023-05-01T07:42:29.307Z,4.90
2023-05-01T07:45:30.964Z,4.90
2023-05-01T07:48:32.720Z,5.00
2023-05-01T07:51:34.424Z,5.10
2023-05-01T07:54:36.018Z,5.50
2023-05-01T07:57:37.660Z,4.90
2023-05-01T08:00:39.264Z,4.60
2023-05-01T08:03:40.971Z,4.60
2023-05-01T08:06:42.749Z,5.30
2023-05-01T08:09:45.832Z,4.30
2023-05-01T08:12:47.506Z,4.10
2023-05-01T08:15:49.283Z,4.40
2023-05-01T08:18:50.901Z,4.60
2023-05-01T08:21:52.705Z,4.80
2023-05-01T08:24:54.333Z,5.10
2023-05-01T08:27:55.921Z,4.20
2023-05-01T08:30:57.571Z,4.90
2023-05-01T08:33:59.232Z,5.50
2023-05-01T08:37:00.913Z,4.60
2023-05-01T08:40:02.510Z,5.20
2023-05-01T08:43:04.747Z,5.50
2023-05-01T08:46:07.368Z,5.00
2023-05-01T08:49:09.541Z,5.10
2023-05-01T08:52:12.581Z,5.50
2023-05-01T08:55:15.491Z,4.90
2023-05-01T08:58:18.231Z,4.80
2023-05-01T09:01:20.566Z,5.20
2023-05-01T09:04:22.321Z,4.80
2023-05-01T09:07:24.678Z,6.10
2023-05-01T09:10:26.562Z,4.40
2023-05-01T09:13:28.500Z,4.30
2023-05-01T09:16:30.172Z,4.70
2023-05-01T09:19:31.859Z,4.60
2023-05-01T09:22:34.201Z,4.10
2023-05-01T09:25:35.917Z,4.20
2023-05-01T09:28:46.219Z,4.30
2023-05-01T09:31:47.911Z,4.40
2023-05-01T09:34:50.658Z,4.10
2023-05-01T09:37:57.167Z,4.10
2023-05-01T09:41:04.735Z,4.50
2023-05-01T09:44:17.984Z,4.20
2023-05-01T09:47:22.772Z,4.70
2023-05-01T09:50:35.062Z,4.80
2023-05-01T09:53:40.592Z,4.70
2023-05-01T09:56:47.152Z,4.30
2023-05-01T10:00:02.416Z,4.60
2023-05-01T10:03:13.811Z,4.70
2023-05-01T10:06:26.573Z,4.10
2023-05-01T10:09:29.499Z,4.40
2023-05-01T10:12:31.121Z,4.30
2023-05-01T10:15:38.676Z,4.30
2023-05-01T10:18:40.495Z,3.90
2023-05-01T10:21:42.128Z,4.10
2023-05-01T10:24:44.368Z,3.70
2023-05-01T10:27:46.364Z,3.90
2023-05-01T10:30:49.043Z,3.60
2023-05-01T10:33:50.617Z,3.80
2023-05-01T10:37:04.204Z,4.00
2023-05-01T10:40:40.438Z,3.90
2023-05-01T10:43:43.129Z,3.70
2023-05-01T10:46:44.778Z,3.70
2023-05-01T10:50:05.051Z,3.90
2023-05-01T10:53:12.582Z,3.90
2023-05-01T10:56:34.401Z,4.60
2023-05-01T11:00:04.215Z,3.90
2023-05-01T11:03:21.416Z,4.20
2023-05-01T11:06:23.604Z,3.30
2023-05-01T11:09:41.630Z,3.70
2023-05-01T11:12:46.376Z,4.00
2023-05-01T11:15:48.065Z,3.80
2023-05-01T11:18:49.709Z,4.10
2023-05-01T11:21:51.605Z,3.40
2023-05-01T11:24:53.216Z,3.50
2023-05-01T11:27:56.960Z,3.60
2023-05-01T11:30:59.644Z,3.80
2023-05-01T11:34:02.495Z,3.90
2023-05-01T11:37:04.069Z,4.10
2023-05-01T11:40:19.132Z,3.40
2023-05-01T11:43:20.924Z,3.70
2023-05-01T11:46:30.416Z,3.50
2023-05-01T11:49:32.165Z,3.80
2023-05-01T11:52:48.732Z,3.30
2023-05-01T11:55:50.406Z,3.50
2023-05-01T11:58:53.518Z,3.60
2023-05-01T12:01:55.535Z,3.30
2023-05-01T12:04:57.363Z,3.70
2023-05-01T12:08:11.525Z,3.60
2023-05-01T12:11:13.423Z,3.40
2023-05-01T12:14:15.685Z,3.20
2023-05-01T12:17:17.412Z,3.30
2023-05-01T12:20:34.696Z,3.40
2023-05-01T12:23:36.761Z,3.10
2023-05-01T12:26:38.584Z,3.30
2023-05-01T12:29:41.151Z,3.30
2023-05-01T12:32:42.753Z,3.40
2023-05-01T12:35:46.285Z,3.30
2023-05-01T12:39:05.364Z,3.00
2023-05-01T12:42:13.968Z,3.30
2023-05-01T12:45:15.714Z,3.60
2023-05-01T12:48:17.531Z,3.00
2023-05-01T12:51:20.471Z,3.30
2023-05-01T12:54:24.676Z,3.20
2023-05-01T12:57:26.270Z,3.00
2023-05-01T13:00:28.347Z,3.40
2023-05-01T13:03:31.352Z,3.30
2023-05-01T13:06:33.437Z,3.00
2023-05-01T13:09:35.105Z,3.10
2023-05-01T13:12:44.067Z,3.30
2023-05-01T13:15:45.797Z,3.00
2023-05-01T13:18:51.792Z,3.60
2023-05-01T13:21:53.765Z,3.50
2023-05-01T13:24:55.506Z,3.20
2023-05-01T13:27:57.125Z,3.30
2023-05-01T13:30:59.007Z,3.20
2023-05-01T13:34:01.101Z,6.20
2023-05-01T13:37:03.704Z,3.70
2023-05-01T13:40:06.425Z,3.80
2023-05-01T13:43:14.144Z,3.30
2023-05-01T13:46:17.334Z,3.60
2023-05-01T13:49:21.397Z,3.30
2023-05-01T13:52:23.134Z,3.50
2023-05-01T13:55:24.926Z,3.20
2023-05-01T13:58:28.950Z,3.60
2023-05-01T14:01:30.743Z,3.20
2023-05-01T14:04:35.453Z,3.30
2023-05-01T14:07:44.450Z,3.60
2023-05-01T14:10:46.064Z,3.30
2023-05-01T14:13:47.966Z,3.10
2023-05-01T14:16:51.108Z,3.20
2023-05-01T14:19:52.816Z,3.30
2023-05-01T14:22:54.419Z,3.40
2023-05-01T14:25:56.095Z,3.20
2023-05-01T14:28:57.764Z,3.20
2023-05-01T14:32:03.945Z,3.20
2023-05-01T14:35:09.505Z,3.10
2023-05-01T14:38:13.620Z,3.30
2023-05-01T14:41:17.341Z,3.20
2023-05-01T14:44:19.714Z,3.10
2023-05-01T14:47:21.389Z,3.30
2023-05-01T14:50:24.578Z,3.00
2023-05-01T14:53:26.480Z,3.10
2023-05-01T14:56:28.158Z,3.20
2023-05-01T14:59:29.868Z,3.70
2023-05-01T15:02:31.523Z,3.50
2023-05-01T15:05:33.183Z,3.30
2023-05-01T15:08:35.050Z,3.00
2023-05-01T15:11:36.873Z,3.60
2023-05-01T15:14:38.578Z,3.30
2023-05-01T15:17:40.220Z,3.60
2023-05-01T15:20:41.929Z,4.50
2023-05-01T15:23:43.555Z,3.90
2023-05-01T15:26:45.636Z,3.90
2023-05-01T15:29:47.292Z,3.40
2023-05-01T15:32:48.955Z,3.80
2023-05-01T15:35:51.136Z,3.70
2023-05-01T15:38:52.873Z,3.70
2023-05-01T15:41:54.536Z,4.10
2023-05-01T15:44:56.375Z,3.60
2023-05-01T15:47:58.415Z,3.40
2023-05-01T15:51:00.177Z,3.30
2023-05-01T15:54:01.997Z,3.50
2023-05-01T15:57:03.674Z,3.60
2023-05-01T16:00:06.430Z,4.10
2023-05-01T16:03:08.702Z,4.10
2023-05-01T16:06:12.057Z,8.50
2023-05-01T16:09:14.345Z,8.90
2023-05-01T16:12:15.982Z,4.60
2023-05-01T16:15:18.112Z,4.70
2023-05-01T16:18:23.133Z,3.90
2023-05-01T16:21:26.055Z,4.40
2023-05-01T16:24:27.764Z,4.80
2023-05-01T16:27:29.424Z,3.90
2023-05-01T16:30:31.038Z,3.90
2023-05-01T16:33:33.836Z,3.90
2023-05-01T16:36:35.499Z,3.80
2023-05-01T16:39:37.190Z,4.00
2023-05-01T16:42:38.831Z,3.60
2023-05-01T16:45:40.599Z,3.90
2023-05-01T16:48:42.745Z,3.50
2023-05-01T16:51:44.384Z,3.90
2023-05-01T16:54:46.047Z,4.00
2023-05-01T16:57:47.918Z,6.40
2023-05-01T17:00:49.553Z,5.10
2023-05-01T17:03:51.230Z,4.90
2023-05-01T17:06:53.238Z,4.20
2023-05-01T17:09:55.341Z,4.20
2023-05-01T17:12:57.009Z,4.20
2023-05-01T17:15:58.686Z,3.80
2023-05-01T17:19:00.302Z,3.90
2023-05-01T17:22:02.013Z,4.30
2023-05-01T17:25:03.821Z,5.30
2023-05-01T17:28:05.770Z,8.20
2023-05-01T17:31:07.560Z,13.60
2023-05-01T17:34:09.318Z,14.10
2023-05-01T17:37:11.044Z,8.50
2023-05-01T17:40:13.027Z,8.40
2023-05-01T17:43:14.629Z,7.20
2023-05-01T17:46:16.302Z,6.10
2023-05-01T17:49:18.012Z,8.20
2023-05-01T17:52:19.654Z,9.50
2023-05-01T17:55:21.300Z,11.20
2023-05-01T17:58:22.890Z,13.30
2023-05-01T18:01:24.839Z,11.90
2023-05-01T18:04:26.513Z,11.70
2023-05-01T18:07:28.173Z,9.10
2023-05-01T18:10:30.528Z,9.70
2023-05-01T18:13:32.240Z,10.60
2023-05-01T18:16:33.850Z,8.50
2023-05-01T18:19:35.690Z,7.60
2023-05-01T18:22:37.310Z,8.80
2023-05-01T18:25:39.105Z,8.00
2023-05-01T18:28:40.815Z,9.40
2023-05-01T18:31:42.434Z,8.60
2023-05-01T18:34:44.127Z,7.90
2023-05-01T18:37:45.972Z,9.20
2023-05-01T18:40:47.912Z,9.70
2023-05-01T18:43:51.812Z,9.60
2023-05-01T18:46:55.318Z,11.20
2023-05-01T18:49:57.052Z,11.00
2023-05-01T18:52:59.127Z,13.00
2023-05-01T18:56:01.084Z,14.90
2023-05-01T18:59:02.905Z,11.90
2023-05-01T19:02:04.615Z,10.40
2023-05-01T19:05:07.624Z,9.90
2023-05-01T19:08:09.524Z,13.40
2023-05-01T19:11:11.193Z,10.10
2023-05-01T19:14:13.165Z,8.00
2023-05-01T19:17:14.960Z,8.30
2023-05-01T19:20:16.645Z,7.50
2023-05-01T19:23:18.240Z,8.00
2023-05-01T19:26:20.167Z,8.70
2023-05-01T19:29:21.812Z,8.20
2023-05-01T19:32:23.703Z,8.60
2023-05-01T19:35:25.836Z,8.70
2023-05-01T19:38:27.760Z,11.00
2023-05-01T19:41:29.390Z,12.80
2023-05-01T19:44:33.622Z,14.30
2023-05-01T19:47:35.317Z,13.30
2023-05-01T19:50:36.921Z,15.80
2023-05-01T19:53:38.693Z,15.40
2023-05-01T19:56:40.550Z,21.10
2023-05-01T19:59:42.161Z,19.70
2023-05-01T20:02:43.954Z,17.80
2023-05-01T20:05:45.639Z,17.60
2023-05-01T20:08:47.295Z,19.10
2023-05-01T20:11:48.955Z,18.90
2023-05-01T20:14:50.607Z,16.60
2023-05-01T20:17:52.450Z,14.70
2023-05-01T20:20:54.195Z,15.60
2023-05-01T20:23:55.883Z,11.60
2023-05-01T20:26:58.005Z,10.10
2023-05-01T20:29:59.882Z,9.20
2023-05-01T20:33:01.839Z,9.20
2023-05-01T20:36:04.890Z,10.10
2023-05-01T20:39:06.659Z,9.90
2023-05-01T20:42:08.670Z,10.40
2023-05-01T20:45:10.312Z,10.60
2023-05-01T20:48:12.086Z,11.80
2023-05-01T20:51:14.698Z,12.80
2023-05-01T20:54:16.349Z,12.90
2023-05-01T20:57:18.120Z,12.50
2023-05-01T21:00:20.115Z,12.10
2023-05-01T21:03:21.996Z,11.10
2023-05-01T21:06:23.989Z,11.10
2023-05-01T21:09:25.919Z,10.60
2023-05-01T21:12:28.732Z,9.30
2023-05-01T21:15:30.379Z,10.00
2023-05-01T21:18:33.475Z,9.90
2023-05-01T21:21:35.983Z,9.90
2023-05-01T21:24:39.726Z,9.70
2023-05-01T21:27:41.350Z,9.10
2023-05-01T21:30:43.056Z,8.50
2023-05-01T21:33:44.740Z,9.40
2023-05-01T21:36:46.313Z,9.30
2023-05-01T21:42:49.767Z,9.30
2023-05-01T21:45:51.868Z,9.80
2023-05-01T21:48:53.779Z,9.00
2023-05-01T21:51:59.347Z,9.30
2023-05-01T21:55:05.235Z,10.10
2023-05-01T21:58:06.922Z,10.20
2023-05-01T22:01:08.584Z,9.50
2023-05-01T22:04:14.692Z,9.30
2023-05-01T22:07:16.409Z,10.50
2023-05-01T22:16:21.310Z,8.70
2023-05-01T22:22:24.606Z,9.70
2023-05-01T22:25:26.207Z,9.50
2023-05-01T22:31:29.454Z,9.40
2023-05-01T22:34:31.046Z,9.60
2023-05-01T22:40:34.133Z,8.50
2023-05-01T22:46:37.543Z,8.90
2023-05-01T22:49:39.247Z,9.60
2023-05-01T22:52:40.872Z,10.00
2023-05-01T22:58:43.968Z,9.90
2023-05-01T23:04:47.407Z,9.00
2023-05-01T23:10:50.695Z,8.70
2023-05-01T23:16:53.968Z,10.40
2023-05-01T23:22:57.554Z,10.80
2023-05-01T23:25:59.295Z,11.10
2023-05-01T23:29:01.135Z,10.20
2023-05-01T23:32:02.842Z,9.70
2023-05-01T23:35:14.676Z,10.80
2023-05-01T23:41:18.038Z,9.40
2023-05-01T23:47:21.628Z,9.40
2023-05-01T23:50:23.228Z,11.10
2023-05-01T23:56:26.406Z,11.20
